sensor_id;sensor_type;location;lat;lon;timestamp;pressure;altitude;pressure_sealevel;temperature;humidity
20656;BME280;10487;53.320;8.672;2023-04-10T00:00:42;102147.34;;;4.53;48.99
20656;BME280;10487;53.320;8.672;2023-04-10T00:03:46;102143.88;;;4.52;49.09
20656;BME280;10487;53.320;8.672;2023-04-10T00:06:47;102136.00;;;4.49;49.04
20656;BME280;10487;53.320;8.672;2023-04-10T00:09:49;102143.13;;;4.47;49.11
20656;BME280;10487;53.320;8.672;2023-04-10T00:12:51;102139.69;;;4.44;49.10
20656;BME280;10487;53.320;8.672;2023-04-10T00:15:54;102132.69;;;4.41;49.02
20656;BME280;10487;53.320;8.672;2023-04-10T00:18:56;102128.34;;;4.39;49.16
20656;BME280;10487;53.320;8.672;2023-04-10T00:21:58;102127.53;;;4.37;49.18
20656;BME280;10487;53.320;8.672;2023-04-10T00:24:59;102116.16;;;4.35;49.22
20656;BME280;10487;53.320;8.672;2023-04-10T00:28:01;102119.69;;;4.34;49.08
20656;BME280;10487;53.320;8.672;2023-04-10T00:31:05;102122.41;;;4.31;49.06
20656;BME280;10487;53.320;8.672;2023-04-10T00:34:07;102109.19;;;4.31;49.24
20656;BME280;10487;53.320;8.672;2023-04-10T00:37:09;102101.38;;;4.28;49.11
20656;BME280;10487;53.320;8.672;2023-04-10T00:40:11;102099.63;;;4.27;49.23
20656;BME280;10487;53.320;8.672;2023-04-10T00:43:13;102098.78;;;4.25;49.33
20656;BME280;10487;53.320;8.672;2023-04-10T00:46:15;102092.69;;;4.23;49.32
20656;BME280;10487;53.320;8.672;2023-04-10T00:49:16;102090.03;;;4.23;49.33
20656;BME280;10487;53.320;8.672;2023-04-10T00:52:19;102093.59;;;4.22;49.36
20656;BME280;10487;53.320;8.672;2023-04-10T00:55:20;102083.09;;;4.19;49.31
20656;BME280;10487;53.320;8.672;2023-04-10T00:58:22;102088.41;;;4.17;49.41
20656;BME280;10487;53.320;8.672;2023-04-10T01:01:23;102088.44;;;4.16;49.39
20656;BME280;10487;53.320;8.672;2023-04-10T01:04:26;102078.81;;;4.15;49.33
20656;BME280;10487;53.320;8.672;2023-04-10T01:14:50;102081.50;;;4.11;49.54
20656;BME280;10487;53.320;8.672;2023-04-10T01:20:55;102077.84;;;4.17;49.59
20656;BME280;10487;53.320;8.672;2023-04-10T01:30:39;102073.25;;;4.25;49.62
20656;BME280;10487;53.320;8.672;2023-04-10T01:33:45;102073.19;;;4.27;49.62
20656;BME280;10487;53.320;8.672;2023-04-10T01:36:52;102074.00;;;4.29;49.62
20656;BME280;10487;53.320;8.672;2023-04-10T01:39:58;102073.13;;;4.28;49.64
20656;BME280;10487;53.320;8.672;2023-04-10T01:43:01;102072.28;;;4.28;49.84
20656;BME280;10487;53.320;8.672;2023-04-10T01:46:06;102066.13;;;4.27;49.83
20656;BME280;10487;53.320;8.672;2023-04-10T01:49:08;102061.75;;;4.26;49.77
20656;BME280;10487;53.320;8.672;2023-04-10T01:52:12;102063.50;;;4.26;49.86
20656;BME280;10487;53.320;8.672;2023-04-10T01:55:14;102062.69;;;4.24;49.89
20656;BME280;10487;53.320;8.672;2023-04-10T01:58:16;102056.59;;;4.22;49.79
20656;BME280;10487;53.320;8.672;2023-04-10T02:01:19;102054.84;;;4.21;50.07
20656;BME280;10487;53.320;8.672;2023-04-10T02:04:30;102051.38;;;4.19;49.95
20656;BME280;10487;53.320;8.672;2023-04-10T02:11:05;102038.16;;;4.20;50.02
20656;BME280;10487;53.320;8.672;2023-04-10T02:14:10;102036.41;;;4.19;50.06
20656;BME280;10487;53.320;8.672;2023-04-10T02:17:17;102032.13;;;4.13;50.00
20656;BME280;10487;53.320;8.672;2023-04-10T02:20:22;102022.53;;;4.11;49.97
20656;BME280;10487;53.320;8.672;2023-04-10T02:23:24;102017.31;;;4.08;50.17
20656;BME280;10487;53.320;8.672;2023-04-10T02:26:26;102011.25;;;4.04;50.24
20656;BME280;10487;53.320;8.672;2023-04-10T02:29:27;102017.56;;;3.99;50.07
20656;BME280;10487;53.320;8.672;2023-04-10T02:32:30;102007.06;;;3.96;50.15
20656;BME280;10487;53.320;8.672;2023-04-10T02:35:33;102005.38;;;3.93;50.23
20656;BME280;10487;53.320;8.672;2023-04-10T02:38:35;102004.63;;;3.90;50.29
20656;BME280;10487;53.320;8.672;2023-04-10T02:41:36;102011.72;;;3.88;50.50
20656;BME280;10487;53.320;8.672;2023-04-10T02:44:38;101999.41;;;3.87;50.40
20656;BME280;10487;53.320;8.672;2023-04-10T02:47:39;102001.25;;;3.83;50.49
20656;BME280;10487;53.320;8.672;2023-04-10T02:50:41;101999.56;;;3.81;50.25
20656;BME280;10487;53.320;8.672;2023-04-10T02:53:47;101996.16;;;3.77;50.57
20656;BME280;10487;53.320;8.672;2023-04-10T02:56:48;101995.34;;;3.74;50.46
20656;BME280;10487;53.320;8.672;2023-04-10T02:59:50;101998.09;;;3.71;50.66
20656;BME280;10487;53.320;8.672;2023-04-10T03:02:52;101992.88;;;3.68;50.45
20656;BME280;10487;53.320;8.672;2023-04-10T03:05:54;101991.19;;;3.64;50.50
20656;BME280;10487;53.320;8.672;2023-04-10T03:08:56;101992.16;;;3.61;50.67
20656;BME280;10487;53.320;8.672;2023-04-10T03:11:58;101983.41;;;3.59;50.73
20656;BME280;10487;53.320;8.672;2023-04-10T03:14:59;101982.59;;;3.57;50.79
20656;BME280;10487;53.320;8.672;2023-04-10T03:18:01;101974.72;;;3.54;50.57
20656;BME280;10487;53.320;8.672;2023-04-10T03:21:03;101974.81;;;3.51;50.61
20656;BME280;10487;53.320;8.672;2023-04-10T03:24:05;101967.88;;;3.47;50.63
20656;BME280;10487;53.320;8.672;2023-04-10T03:27:07;101963.50;;;3.46;50.71
20656;BME280;10487;53.320;8.672;2023-04-10T03:30:09;101964.41;;;3.45;50.90
20656;BME280;10487;53.320;8.672;2023-04-10T03:33:11;101966.22;;;3.43;50.62
20656;BME280;10487;53.320;8.672;2023-04-10T03:36:13;101960.09;;;3.41;50.70
20656;BME280;10487;53.320;8.672;2023-04-10T03:39:14;101957.56;;;3.38;50.90
20656;BME280;10487;53.320;8.672;2023-04-10T03:42:16;101961.09;;;3.37;50.98
20656;BME280;10487;53.320;8.672;2023-04-10T03:45:17;101954.13;;;3.34;50.86
20656;BME280;10487;53.320;8.672;2023-04-10T03:48:19;101949.78;;;3.33;51.01
20656;BME280;10487;53.320;8.672;2023-04-10T03:51:22;101949.78;;;3.32;50.86
20656;BME280;10487;53.320;8.672;2023-04-10T03:54:25;101959.47;;;3.31;50.84
20656;BME280;10487;53.320;8.672;2023-04-10T03:57:26;101956.84;;;3.31;50.95
20656;BME280;10487;53.320;8.672;2023-04-10T04:00:28;101948.91;;;3.31;51.04
20656;BME280;10487;53.320;8.672;2023-04-10T04:03:30;101940.16;;;3.31;51.12
20656;BME280;10487;53.320;8.672;2023-04-10T04:06:31;101941.00;;;3.31;51.11
20656;BME280;10487;53.320;8.672;2023-04-10T04:09:33;101946.28;;;3.31;51.01
20656;BME280;10487;53.320;8.672;2023-04-10T04:12:35;101942.78;;;3.31;51.13
20656;BME280;10487;53.320;8.672;2023-04-10T04:15:36;101941.88;;;3.32;51.11
20656;BME280;10487;53.320;8.672;2023-04-10T04:18:38;101947.16;;;3.32;51.00
20656;BME280;10487;53.320;8.672;2023-04-10T04:21:40;101945.34;;;3.34;50.97
20656;BME280;10487;53.320;8.672;2023-04-10T04:24:41;101944.44;;;3.35;51.21
20656;BME280;10487;53.320;8.672;2023-04-10T04:27:43;101944.38;;;3.36;51.02
20656;BME280;10487;53.320;8.672;2023-04-10T04:30:44;101942.63;;;3.37;51.03
20656;BME280;10487;53.320;8.672;2023-04-10T04:33:46;101938.28;;;3.36;51.22
20656;BME280;10487;53.320;8.672;2023-04-10T04:36:47;101940.91;;;3.36;51.26
20656;BME280;10487;53.320;8.672;2023-04-10T04:39:49;101947.91;;;3.37;51.11
20656;BME280;10487;53.320;8.672;2023-04-10T04:42:51;101943.50;;;3.37;51.14
20656;BME280;10487;53.320;8.672;2023-04-10T04:45:52;101954.94;;;3.38;51.19
20656;BME280;10487;53.320;8.672;2023-04-10T04:48:54;101945.19;;;3.40;51.27
20656;BME280;10487;53.320;8.672;2023-04-10T04:51:55;101947.84;;;3.40;51.15
20656;BME280;10487;53.320;8.672;2023-04-10T04:54:57;101945.16;;;3.41;51.44
20656;BME280;10487;53.320;8.672;2023-04-10T04:57:58;101954.75;;;3.44;51.01
20656;BME280;10487;53.320;8.672;2023-04-10T05:01:00;101945.00;;;3.48;51.48
20656;BME280;10487;53.320;8.672;2023-04-10T05:04:02;101950.22;;;3.49;51.24
20656;BME280;10487;53.320;8.672;2023-04-10T05:07:04;101956.34;;;3.51;51.41
20656;BME280;10487;53.320;8.672;2023-04-10T05:10:07;101952.72;;;3.55;51.17
20656;BME280;10487;53.320;8.672;2023-04-10T05:13:09;101953.56;;;3.57;51.19
20656;BME280;10487;53.320;8.672;2023-04-10T05:16:11;101955.25;;;3.60;51.24
20656;BME280;10487;53.320;8.672;2023-04-10T05:19:12;101947.25;;;3.63;51.34
20656;BME280;10487;53.320;8.672;2023-04-10T05:22:14;101942.78;;;3.65;51.32
20656;BME280;10487;53.320;8.672;2023-04-10T05:25:18;101939.22;;;3.67;51.24
20656;BME280;10487;53.320;8.672;2023-04-10T05:28:20;101926.81;;;3.69;51.28
20656;BME280;10487;53.320;8.672;2023-04-10T05:31:23;101921.53;;;3.71;51.45
20656;BME280;10487;53.320;8.672;2023-04-10T05:34:24;101919.72;;;3.71;51.45
20656;BME280;10487;53.320;8.672;2023-04-10T05:37:26;101918.78;;;3.74;51.42
20656;BME280;10487;53.320;8.672;2023-04-10T05:40:28;101916.13;;;3.75;51.53
20656;BME280;10487;53.320;8.672;2023-04-10T05:43:29;101916.00;;;3.78;51.40
20656;BME280;10487;53.320;8.672;2023-04-10T05:46:31;101920.31;;;3.82;51.46
20656;BME280;10487;53.320;8.672;2023-04-10T05:49:32;101919.28;;;3.88;51.48
20656;BME280;10487;53.320;8.672;2023-04-10T05:52:34;101923.50;;;3.95;51.48
20656;BME280;10487;53.320;8.672;2023-04-10T05:55:36;101911.91;;;4.00;51.49
20656;BME280;10487;53.320;8.672;2023-04-10T05:58:38;101923.16;;;4.07;51.54
20656;BME280;10487;53.320;8.672;2023-04-10T06:01:40;101920.31;;;4.13;51.45
20656;BME280;10487;53.320;8.672;2023-04-10T06:04:42;101916.63;;;4.20;51.40
20656;BME280;10487;53.320;8.672;2023-04-10T06:07:43;101910.19;;;4.29;51.33
20656;BME280;10487;53.320;8.672;2023-04-10T06:10:45;101908.19;;;4.37;51.27
20656;BME280;10487;53.320;8.672;2023-04-10T06:13:47;101906.19;;;4.45;51.44
20656;BME280;10487;53.320;8.672;2023-04-10T06:16:48;101908.53;;;4.54;51.20
20656;BME280;10487;53.320;8.672;2023-04-10T06:19:50;101892.31;;;4.66;51.26
20656;BME280;10487;53.320;8.672;2023-04-10T06:22:52;101898.84;;;4.82;51.24
20656;BME280;10487;53.320;8.672;2023-04-10T06:25:54;101901.00;;;4.97;51.26
20656;BME280;10487;53.320;8.672;2023-04-10T06:28:56;101895.22;;;5.12;51.12
20656;BME280;10487;53.320;8.672;2023-04-10T06:31:58;101897.44;;;5.26;51.08
20656;BME280;10487;53.320;8.672;2023-04-10T06:34:59;101891.72;;;5.38;51.07
20656;BME280;10487;53.320;8.672;2023-04-10T06:38:02;101899.22;;;5.52;51.09
20656;BME280;10487;53.320;8.672;2023-04-10T06:41:04;101885.47;;;5.65;51.17
20656;BME280;10487;53.320;8.672;2023-04-10T06:44:06;101886.69;;;5.80;51.04
20656;BME280;10487;53.320;8.672;2023-04-10T06:47:08;101887.81;;;5.97;51.09
20656;BME280;10487;53.320;8.672;2023-04-10T06:50:10;101892.47;;;6.16;51.06
20656;BME280;10487;53.320;8.672;2023-04-10T06:53:12;101895.34;;;6.33;50.90
20656;BME280;10487;53.320;8.672;2023-04-10T06:56:14;101887.53;;;6.51;50.90
20656;BME280;10487;53.320;8.672;2023-04-10T06:59:15;101893.09;;;6.67;50.86
20656;BME280;10487;53.320;8.672;2023-04-10T07:02:17;101881.84;;;6.84;50.91
20656;BME280;10487;53.320;8.672;2023-04-10T07:05:19;101889.19;;;6.99;50.87
20656;BME280;10487;53.320;8.672;2023-04-10T07:08:20;101887.75;;;7.12;50.54
20656;BME280;10487;53.320;8.672;2023-04-10T07:11:22;101890.84;;;7.23;50.80
20656;BME280;10487;53.320;8.672;2023-04-10T07:14:24;101879.72;;;7.35;50.54
20656;BME280;10487;53.320;8.672;2023-04-10T07:17:25;101877.31;;;7.49;50.69
20656;BME280;10487;53.320;8.672;2023-04-10T07:20:27;101882.84;;;7.65;50.41
20656;BME280;10487;53.320;8.672;2023-04-10T07:23:29;101877.66;;;7.82;50.52
20656;BME280;10487;53.320;8.672;2023-04-10T07:26:33;101874.22;;;7.98;50.48
20656;BME280;10487;53.320;8.672;2023-04-10T07:29:35;101870.00;;;8.15;50.46
20656;BME280;10487;53.320;8.672;2023-04-10T07:32:37;101868.31;;;8.31;50.33
20656;BME280;10487;53.320;8.672;2023-04-10T07:35:40;101862.06;;;8.50;50.38
20656;BME280;10487;53.320;8.672;2023-04-10T07:38:42;101857.75;;;8.67;50.35
20656;BME280;10487;53.320;8.672;2023-04-10T07:41:43;101851.59;;;8.83;50.26
20656;BME280;10487;53.320;8.672;2023-04-10T07:44:45;101855.06;;;9.02;50.32
20656;BME280;10487;53.320;8.672;2023-04-10T07:47:46;101841.88;;;9.18;50.15
20656;BME280;10487;53.320;8.672;2023-04-10T07:50:48;101839.47;;;9.31;50.26
20656;BME280;10487;53.320;8.672;2023-04-10T07:53:50;101834.44;;;9.42;50.27
20656;BME280;10487;53.320;8.672;2023-04-10T07:56:52;101827.69;;;9.52;50.10
20656;BME280;10487;53.320;8.672;2023-04-10T07:59:53;101827.03;;;9.64;50.04
20656;BME280;10487;53.320;8.672;2023-04-10T08:02:55;101822.03;;;9.75;50.07
20656;BME280;10487;53.320;8.672;2023-04-10T08:05:57;101812.44;;;9.88;49.91
20656;BME280;10487;53.320;8.672;2023-04-10T08:08:59;101811.66;;;10.02;49.88
20656;BME280;10487;53.320;8.672;2023-04-10T08:12:02;101801.34;;;10.11;49.67
20656;BME280;10487;53.320;8.672;2023-04-10T08:15:04;101794.50;;;10.23;49.80
20656;BME280;10487;53.320;8.672;2023-04-10T08:18:06;101794.75;;;10.34;49.54
20656;BME280;10487;53.320;8.672;2023-04-10T08:21:08;101787.03;;;10.45;49.44
20656;BME280;10487;53.320;8.672;2023-04-10T08:24:09;101779.44;;;10.53;49.53
20656;BME280;10487;53.320;8.672;2023-04-10T08:27:11;101791.13;;;10.66;49.34
20656;BME280;10487;53.320;8.672;2023-04-10T08:30:14;101777.94;;;10.79;49.20
20656;BME280;10487;53.320;8.672;2023-04-10T08:33:15;101784.28;;;10.92;49.21
20656;BME280;10487;53.320;8.672;2023-04-10T08:36:17;101776.41;;;11.04;48.93
20656;BME280;10487;53.320;8.672;2023-04-10T08:39:20;101794.28;;;11.18;48.93
20656;BME280;10487;53.320;8.672;2023-04-10T08:42:22;101781.22;;;11.28;48.80
20656;BME280;10487;53.320;8.672;2023-04-10T08:45:24;101777.91;;;11.38;48.58
20656;BME280;10487;53.320;8.672;2023-04-10T08:48:32;101764.66;;;11.51;48.60
20656;BME280;10487;53.320;8.672;2023-04-10T08:51:40;101758.50;;;11.64;48.56
20656;BME280;10487;53.320;8.672;2023-04-10T08:54:47;101765.75;;;11.76;48.61
20656;BME280;10487;53.320;8.672;2023-04-10T08:57:50;101750.06;;;11.84;48.34
20656;BME280;10487;53.320;8.672;2023-04-10T09:01:04;101744.91;;;11.96;48.35
20656;BME280;10487;53.320;8.672;2023-04-10T09:04:06;101734.47;;;12.05;48.23
20656;BME280;10487;53.320;8.672;2023-04-10T09:07:08;101736.56;;;12.14;48.26
20656;BME280;10487;53.320;8.672;2023-04-10T09:10:10;101743.25;;;12.21;48.14
20656;BME280;10487;53.320;8.672;2023-04-10T09:13:12;101739.41;;;12.25;48.02
20656;BME280;10487;53.320;8.672;2023-04-10T09:16:13;101727.34;;;12.32;48.02
20656;BME280;10487;53.320;8.672;2023-04-10T09:19:32;101718.59;;;12.43;47.91
20656;BME280;10487;53.320;8.672;2023-04-10T09:22:34;101700.03;;;12.54;47.79
20656;BME280;10487;53.320;8.672;2023-04-10T09:25:37;101694.44;;;12.71;47.85
20656;BME280;10487;53.320;8.672;2023-04-10T09:29:03;101690.59;;;12.88;47.69
20656;BME280;10487;53.320;8.672;2023-04-10T09:32:05;101671.41;;;12.94;47.52
20656;BME280;10487;53.320;8.672;2023-04-10T09:35:11;101680.09;;;12.97;47.43
20656;BME280;10487;53.320;8.672;2023-04-10T09:38:17;101673.66;;;13.00;47.40
20656;BME280;10487;53.320;8.672;2023-04-10T09:41:19;101665.22;;;13.06;47.46
20656;BME280;10487;53.320;8.672;2023-04-10T09:44:32;101662.22;;;13.10;47.07
20656;BME280;10487;53.320;8.672;2023-04-10T09:47:34;101646.13;;;13.23;47.16
20656;BME280;10487;53.320;8.672;2023-04-10T09:50:36;101639.91;;;13.35;46.98
20656;BME280;10487;53.320;8.672;2023-04-10T09:53:47;101638.28;;;13.45;46.99
20656;BME280;10487;53.320;8.672;2023-04-10T09:56:51;101630.34;;;13.56;46.94
20656;BME280;10487;53.320;8.672;2023-04-10T09:59:54;101612.78;;;13.76;46.84
20656;BME280;10487;53.320;8.672;2023-04-10T10:02:58;101611.00;;;14.00;46.71
20656;BME280;10487;53.320;8.672;2023-04-10T10:06:00;101613.03;;;14.20;46.31
20656;BME280;10487;53.320;8.672;2023-04-10T10:09:03;101600.88;;;14.27;46.25
20656;BME280;10487;53.320;8.672;2023-04-10T10:12:06;101592.25;;;14.35;45.96
20656;BME280;10487;53.320;8.672;2023-04-10T10:15:25;101583.59;;;14.43;45.96
20656;BME280;10487;53.320;8.672;2023-04-10T10:18:46;101588.38;;;14.50;45.74
20656;BME280;10487;53.320;8.672;2023-04-10T10:21:52;101585.09;;;14.58;45.74
20656;BME280;10487;53.320;8.672;2023-04-10T10:24:55;101581.38;;;14.71;45.77
20656;BME280;10487;53.320;8.672;2023-04-10T10:27:58;101581.25;;;14.84;45.33
20656;BME280;10487;53.320;8.672;2023-04-10T10:31:03;101590.19;;;14.95;45.32
20656;BME280;10487;53.320;8.672;2023-04-10T10:34:05;101569.53;;;15.07;45.05
20656;BME280;10487;53.320;8.672;2023-04-10T10:37:10;101562.44;;;15.17;45.15
20656;BME280;10487;53.320;8.672;2023-04-10T10:44:05;101532.88;;;15.39;44.83
20656;BME280;10487;53.320;8.672;2023-04-10T10:47:15;101538.63;;;15.46;44.74
20656;BME280;10487;53.320;8.672;2023-04-10T10:50:19;101530.81;;;15.43;44.55
20656;BME280;10487;53.320;8.672;2023-04-10T10:53:38;101535.06;;;15.45;44.51
20656;BME280;10487;53.320;8.672;2023-04-10T10:56:41;101512.59;;;15.46;44.30
20656;BME280;10487;53.320;8.672;2023-04-10T11:06:09;101502.97;;;15.22;44.10
20656;BME280;10487;53.320;8.672;2023-04-10T11:13:15;101496.84;;;14.97;43.91
20656;BME280;10487;53.320;8.672;2023-04-10T11:16:21;101501.66;;;14.94;43.95
20656;BME280;10487;53.320;8.672;2023-04-10T11:19:22;101480.75;;;14.86;43.84
20656;BME280;10487;53.320;8.672;2023-04-10T11:22:27;101478.44;;;14.82;43.84
20656;BME280;10487;53.320;8.672;2023-04-10T11:26:04;101475.38;;;14.75;43.76
20656;BME280;10487;53.320;8.672;2023-04-10T11:32:20;101461.81;;;14.66;43.49
20656;BME280;10487;53.320;8.672;2023-04-10T11:35:21;101458.28;;;14.65;43.71
20656;BME280;10487;53.320;8.672;2023-04-10T11:38:23;101441.06;;;14.68;43.39
20656;BME280;10487;53.320;8.672;2023-04-10T11:41:32;101430.81;;;14.73;43.37
20656;BME280;10487;53.320;8.672;2023-04-10T11:44:34;101428.97;;;14.73;43.12
20656;BME280;10487;53.320;8.672;2023-04-10T11:47:36;101418.97;;;14.75;43.40
20656;BME280;10487;53.320;8.672;2023-04-10T11:50:38;101419.59;;;14.79;43.06
20656;BME280;10487;53.320;8.672;2023-04-10T11:53:40;101400.41;;;14.83;43.20
20656;BME280;10487;53.320;8.672;2023-04-10T11:56:44;101393.69;;;14.89;42.97
20656;BME280;10487;53.320;8.672;2023-04-10T11:59:49;101400.25;;;14.85;43.14
20656;BME280;10487;53.320;8.672;2023-04-10T12:02:51;101405.91;;;14.82;43.10
20656;BME280;10487;53.320;8.672;2023-04-10T12:05:54;101397.84;;;14.82;43.05
20656;BME280;10487;53.320;8.672;2023-04-10T12:08:55;101389.03;;;14.80;42.86
20656;BME280;10487;53.320;8.672;2023-04-10T12:15:00;101395.13;;;14.93;42.74
20656;BME280;10487;53.320;8.672;2023-04-10T12:18:02;101376.03;;;15.07;42.87
20656;BME280;10487;53.320;8.672;2023-04-10T12:21:05;101383.47;;;15.26;42.84
20656;BME280;10487;53.320;8.672;2023-04-10T12:24:09;101363.22;;;15.42;42.64
20656;BME280;10487;53.320;8.672;2023-04-10T12:27:25;101347.69;;;15.46;42.46
20656;BME280;10487;53.320;8.672;2023-04-10T12:30:28;101349.03;;;15.51;42.57
20656;BME280;10487;53.320;8.672;2023-04-10T12:33:29;101332.69;;;15.64;42.33
20656;BME280;10487;53.320;8.672;2023-04-10T12:36:31;101323.81;;;15.73;42.38
20656;BME280;10487;53.320;8.672;2023-04-10T12:39:35;101316.75;;;15.82;42.15
20656;BME280;10487;53.320;8.672;2023-04-10T12:42:41;101327.72;;;15.90;42.44
20656;BME280;10487;53.320;8.672;2023-04-10T12:45:44;101310.06;;;15.97;42.10
20656;BME280;10487;53.320;8.672;2023-04-10T12:48:45;101337.97;;;15.96;41.74
20656;BME280;10487;53.320;8.672;2023-04-10T12:51:51;101322.59;;;15.87;41.65
20656;BME280;10487;53.320;8.672;2023-04-10T12:54:52;101298.22;;;15.79;41.47
20656;BME280;10487;53.320;8.672;2023-04-10T12:57:54;101282.34;;;15.76;41.62
20656;BME280;10487;53.320;8.672;2023-04-10T13:01:01;101292.84;;;15.79;41.54
20656;BME280;10487;53.320;8.672;2023-04-10T13:04:03;101276.16;;;15.85;41.43
20656;BME280;10487;53.320;8.672;2023-04-10T13:07:05;101277.00;;;15.85;41.30
20656;BME280;10487;53.320;8.672;2023-04-10T13:10:07;101266.09;;;15.87;41.26
20656;BME280;10487;53.320;8.672;2023-04-10T13:13:09;101256.06;;;15.89;41.39
20656;BME280;10487;53.320;8.672;2023-04-10T13:16:13;101256.91;;;15.89;41.34
20656;BME280;10487;53.320;8.672;2023-04-10T13:19:15;101248.56;;;15.92;41.33
20656;BME280;10487;53.320;8.672;2023-04-10T13:22:17;101245.75;;;15.94;41.11
20656;BME280;10487;53.320;8.672;2023-04-10T13:25:18;101236.69;;;15.95;41.12
20656;BME280;10487;53.320;8.672;2023-04-10T13:28:20;101221.66;;;15.92;40.81
20656;BME280;10487;53.320;8.672;2023-04-10T13:31:22;101215.72;;;15.89;40.99
20656;BME280;10487;53.320;8.672;2023-04-10T13:34:24;101217.41;;;15.90;40.82
20656;BME280;10487;53.320;8.672;2023-04-10T13:37:26;101207.75;;;15.87;40.75
20656;BME280;10487;53.320;8.672;2023-04-10T13:40:30;101188.63;;;15.81;40.69
20656;BME280;10487;53.320;8.672;2023-04-10T13:43:32;101187.31;;;15.75;40.68
20656;BME280;10487;53.320;8.672;2023-04-10T13:46:34;101185.03;;;15.71;40.65
20656;BME280;10487;53.320;8.672;2023-04-10T13:49:36;101172.97;;;15.65;40.54
20656;BME280;10487;53.320;8.672;2023-04-10T13:52:37;101171.66;;;15.59;40.54
20656;BME280;10487;53.320;8.672;2023-04-10T13:55:39;101156.53;;;15.58;40.32
20656;BME280;10487;53.320;8.672;2023-04-10T13:58:45;101160.47;;;15.54;40.33
20656;BME280;10487;53.320;8.672;2023-04-10T14:01:47;101150.97;;;15.50;40.00
20656;BME280;10487;53.320;8.672;2023-04-10T14:04:51;101150.53;;;15.45;40.03
20656;BME280;10487;53.320;8.672;2023-04-10T14:07:52;101140.03;;;15.42;40.10
20656;BME280;10487;53.320;8.672;2023-04-10T14:10:57;101138.06;;;15.44;40.40
20656;BME280;10487;53.320;8.672;2023-04-10T14:13:58;101131.44;;;15.48;40.25
20656;BME280;10487;53.320;8.672;2023-04-10T14:17:00;101130.44;;;15.49;40.30
20656;BME280;10487;53.320;8.672;2023-04-10T14:20:02;101132.56;;;15.46;39.66
20656;BME280;10487;53.320;8.672;2023-04-10T14:23:04;101111.47;;;15.41;39.77
20656;BME280;10487;53.320;8.672;2023-04-10T14:26:06;101092.91;;;15.38;39.78
20656;BME280;10487;53.320;8.672;2023-04-10T14:29:08;101084.56;;;15.41;39.84
20656;BME280;10487;53.320;8.672;2023-04-10T14:32:10;101074.25;;;15.46;39.76
20656;BME280;10487;53.320;8.672;2023-04-10T14:35:11;101061.81;;;15.55;39.84
20656;BME280;10487;53.320;8.672;2023-04-10T14:38:13;101057.59;;;15.62;39.64
20656;BME280;10487;53.320;8.672;2023-04-10T14:41:16;101045.84;;;15.63;39.54
20656;BME280;10487;53.320;8.672;2023-04-10T14:44:17;101040.31;;;15.64;39.75
20656;BME280;10487;53.320;8.672;2023-04-10T14:47:19;101029.88;;;15.61;39.68
20656;BME280;10487;53.320;8.672;2023-04-10T14:50:21;101021.91;;;15.60;39.58
20656;BME280;10487;53.320;8.672;2023-04-10T14:53:23;101020.06;;;15.60;39.44
20656;BME280;10487;53.320;8.672;2023-04-10T14:56:24;101033.09;;;15.65;39.46
20656;BME280;10487;53.320;8.672;2023-04-10T14:59:26;101015.69;;;15.69;39.58
20656;BME280;10487;53.320;8.672;2023-04-10T15:02:28;101027.56;;;15.66;39.38
20656;BME280;10487;53.320;8.672;2023-04-10T15:05:31;101022.63;;;15.62;39.31
20656;BME280;10487;53.320;8.672;2023-04-10T15:08:32;101007.75;;;15.58;39.23
20656;BME280;10487;53.320;8.672;2023-04-10T15:11:34;101014.25;;;15.55;39.27
20656;BME280;10487;53.320;8.672;2023-04-10T15:14:35;101002.09;;;15.51;39.25
20656;BME280;10487;53.320;8.672;2023-04-10T15:17:37;101001.34;;;15.49;39.41
20656;BME280;10487;53.320;8.672;2023-04-10T15:20:39;100985.38;;;15.48;39.31
20656;BME280;10487;53.320;8.672;2023-04-10T15:23:40;100975.91;;;15.44;39.29
20656;BME280;10487;53.320;8.672;2023-04-10T15:26:43;100970.91;;;15.39;39.39
20656;BME280;10487;53.320;8.672;2023-04-10T15:29:48;100961.44;;;15.35;39.31
20656;BME280;10487;53.320;8.672;2023-04-10T15:32:50;100958.75;;;15.35;39.33
20656;BME280;10487;53.320;8.672;2023-04-10T15:35:51;100949.97;;;15.33;39.56
20656;BME280;10487;53.320;8.672;2023-04-10T15:38:53;100940.50;;;15.29;39.42
20656;BME280;10487;53.320;8.672;2023-04-10T15:41:55;100932.00;;;15.24;39.14
20656;BME280;10487;53.320;8.672;2023-04-10T15:44:57;100934.22;;;15.19;39.27
20656;BME280;10487;53.320;8.672;2023-04-10T15:47:58;100925.72;;;15.14;39.36
20656;BME280;10487;53.320;8.672;2023-04-10T15:51:05;100927.66;;;15.12;39.26
20656;BME280;10487;53.320;8.672;2023-04-10T15:54:07;100919.91;;;15.09;39.43
20656;BME280;10487;53.320;8.672;2023-04-10T15:57:09;100909.44;;;15.06;39.48
20656;BME280;10487;53.320;8.672;2023-04-10T16:00:11;100906.84;;;15.04;39.36
20656;BME280;10487;53.320;8.672;2023-04-10T16:03:13;100890.19;;;15.01;39.33
20656;BME280;10487;53.320;8.672;2023-04-10T16:06:15;100877.88;;;14.98;39.27
20656;BME280;10487;53.320;8.672;2023-04-10T16:09:17;100873.34;;;14.99;39.54
20656;BME280;10487;53.320;8.672;2023-04-10T16:12:22;100862.16;;;14.94;39.35
20656;BME280;10487;53.320;8.672;2023-04-10T16:15:24;100855.34;;;14.90;39.54
20656;BME280;10487;53.320;8.672;2023-04-10T16:18:28;100852.97;;;14.87;39.46
20656;BME280;10487;53.320;8.672;2023-04-10T16:21:29;100848.72;;;14.84;39.16
20656;BME280;10487;53.320;8.672;2023-04-10T16:24:31;100849.97;;;14.80;39.19
20656;BME280;10487;53.320;8.672;2023-04-10T16:27:33;100852.91;;;14.77;39.22
20656;BME280;10487;53.320;8.672;2023-04-10T16:30:35;100854.78;;;14.77;39.30
20656;BME280;10487;53.320;8.672;2023-04-10T16:33:37;100849.53;;;14.75;39.19
20656;BME280;10487;53.320;8.672;2023-04-10T16:36:39;100843.59;;;14.72;39.21
20656;BME280;10487;53.320;8.672;2023-04-10T16:39:41;100847.53;;;14.68;39.33
20656;BME280;10487;53.320;8.672;2023-04-10T16:42:43;100832.53;;;14.65;39.50